sensor_id;sensor_type;location;lat;lon;timestamp;temperature;humidity
16172;DHT22;8192;53.596;10.166;2023-02-18T00:01:18;6.50;99.90
16172;DHT22;8192;53.596;10.166;2023-02-18T00:03:46;6.50;99.90
16172;DHT22;8192;53.596;10.166;2023-02-18T00:06:15;6.50;99.90
16172;DHT22;8192;53.596;10.166;2023-02-18T00:08:43;6.60;99.90
16172;DHT22;8192;53.596;10.166;2023-02-18T00:11:12;6.60;99.90
16172;DHT22;8192;53.596;10.166;2023-02-18T00:13:39;6.70;99.90
16172;DHT22;8192;53.596;10.166;2023-02-18T00:16:08;6.60;99.90
16172;DHT22;8192;53.596;10.166;2023-02-18T00:18:38;6.60;99.90
16172;DHT22;8192;53.596;10.166;2023-02-18T00:21:06;6.60;99.90
16172;DHT22;8192;53.596;10.166;2023-02-18T00:23:34;6.70;99.90
16172;DHT22;8192;53.596;10.166;2023-02-18T00:26:05;6.70;99.90
16172;DHT22;8192;53.596;10.166;2023-02-18T00:28:33;6.80;99.90
16172;DHT22;8192;53.596;10.166;2023-02-18T00:31:05;6.80;99.90
16172;DHT22;8192;53.596;10.166;2023-02-18T00:33:34;6.80;99.90
16172;DHT22;8192;53.596;10.166;2023-02-18T00:36:05;6.70;99.90
16172;DHT22;8192;53.596;10.166;2023-02-18T00:38:33;6.70;99.90
16172;DHT22;8192;53.596;10.166;2023-02-18T00:41:01;6.70;99.90
16172;DHT22;8192;53.596;10.166;2023-02-18T00:43:31;6.70;99.90
16172;DHT22;8192;53.596;10.166;2023-02-18T00:45:58;6.70;99.90
16172;DHT22;8192;53.596;10.166;2023-02-18T00:48:26;6.70;99.90
16172;DHT22;8192;53.596;10.166;2023-02-18T00:50:56;6.70;99.90
16172;DHT22;8192;53.596;10.166;2023-02-18T00:55:40;6.60;99.90
16172;DHT22;8192;53.596;10.166;2023-02-18T00:58:07;6.60;99.90
16172;DHT22;8192;53.596;10.166;2023-02-18T01:00:35;6.60;99.90
16172;DHT22;8192;53.596;10.166;2023-02-18T01:03:03;6.60;99.90
16172;DHT22;8192;53.596;10.166;2023-02-18T01:05:35;6.60;99.90
16172;DHT22;8192;53.596;10.166;2023-02-18T01:08:05;6.60;99.90
16172;DHT22;8192;53.596;10.166;2023-02-18T01:10:33;6.50;99.90
16172;DHT22;8192;53.596;10.166;2023-02-18T01:13:02;6.50;99.90
16172;DHT22;8192;53.596;10.166;2023-02-18T01:15:29;6.60;99.90
16172;DHT22;8192;53.596;10.166;2023-02-18T01:17:57;6.60;99.90
16172;DHT22;8192;53.596;10.166;2023-02-18T01:21:51;6.50;99.90
16172;DHT22;8192;53.596;10.166;2023-02-18T01:24:18;6.50;99.90
16172;DHT22;8192;53.596;10.166;2023-02-18T01:26:45;6.50;99.90
16172;DHT22;8192;53.596;10.166;2023-02-18T01:29:13;6.50;99.90
16172;DHT22;8192;53.596;10.166;2023-02-18T01:31:40;6.50;99.90
16172;DHT22;8192;53.596;10.166;2023-02-18T01:34:07;6.40;99.90
16172;DHT22;8192;53.596;10.166;2023-02-18T01:36:34;6.40;99.90
16172;DHT22;8192;53.596;10.166;2023-02-18T01:39:04;6.30;99.90
16172;DHT22;8192;53.596;10.166;2023-02-18T01:41:31;6.20;99.90
16172;DHT22;8192;53.596;10.166;2023-02-18T01:44:13;6.20;99.90
16172;DHT22;8192;53.596;10.166;2023-02-18T01:46:40;6.20;99.90
16172;DHT22;8192;53.596;10.166;2023-02-18T01:49:08;6.20;99.90
16172;DHT22;8192;53.596;10.166;2023-02-18T01:51:39;6.20;99.90
16172;DHT22;8192;53.596;10.166;2023-02-18T01:54:12;6.20;99.90
16172;DHT22;8192;53.596;10.166;2023-02-18T01:56:45;6.10;99.90
16172;DHT22;8192;53.596;10.166;2023-02-18T01:59:18;6.10;99.90
16172;DHT22;8192;53.596;10.166;2023-02-18T02:01:47;6.10;99.90
16172;DHT22;8192;53.596;10.166;2023-02-18T02:04:14;6.20;99.90
16172;DHT22;8192;53.596;10.166;2023-02-18T02:06:42;6.10;99.90
16172;DHT22;8192;53.596;10.166;2023-02-18T02:09:14;6.10;99.90
16172;DHT22;8192;53.596;10.166;2023-02-18T02:12:06;6.10;99.90
16172;DHT22;8192;53.596;10.166;2023-02-18T02:14:59;6.10;99.90
16172;DHT22;8192;53.596;10.166;2023-02-18T02:17:38;6.10;99.90
16172;DHT22;8192;53.596;10.166;2023-02-18T02:20:56;6.10;99.90
16172;DHT22;8192;53.596;10.166;2023-02-18T02:23:45;6.20;99.90
16172;DHT22;8192;53.596;10.166;2023-02-18T02:35:30;6.20;99.90
16172;DHT22;8192;53.596;10.166;2023-02-18T02:38:05;6.20;99.90
16172;DHT22;8192;53.596;10.166;2023-02-18T02:40:46;6.10;99.90
16172;DHT22;8192;53.596;10.166;2023-02-18T02:43:20;6.10;99.90
16172;DHT22;8192;53.596;10.166;2023-02-18T02:45:54;6.00;99.90
16172;DHT22;8192;53.596;10.166;2023-02-18T02:48:28;6.00;99.90
16172;DHT22;8192;53.596;10.166;2023-02-18T02:51:05;6.00;99.90
16172;DHT22;8192;53.596;10.166;2023-02-18T02:53:34;6.00;99.90
16172;DHT22;8192;53.596;10.166;2023-02-18T02:56:01;6.00;99.90
16172;DHT22;8192;53.596;10.166;2023-02-18T02:58:28;6.00;99.90
16172;DHT22;8192;53.596;10.166;2023-02-18T03:01:14;6.00;99.90
16172;DHT22;8192;53.596;10.166;2023-02-18T03:07:20;6.10;99.90
16172;DHT22;8192;53.596;10.166;2023-02-18T03:10:03;6.00;99.90
16172;DHT22;8192;53.596;10.166;2023-02-18T03:12:38;6.10;99.90
16172;DHT22;8192;53.596;10.166;2023-02-18T03:15:19;6.10;99.90
16172;DHT22;8192;53.596;10.166;2023-02-18T03:17:54;6.10;99.90
16172;DHT22;8192;53.596;10.166;2023-02-18T03:20:26;6.10;99.90
16172;DHT22;8192;53.596;10.166;2023-02-18T03:22:57;6.10;99.90
16172;DHT22;8192;53.596;10.166;2023-02-18T03:25:25;6.10;99.90
16172;DHT22;8192;53.596;10.166;2023-02-18T03:27:56;6.10;99.90
16172;DHT22;8192;53.596;10.166;2023-02-18T03:30:27;6.20;99.90
16172;DHT22;8192;53.596;10.166;2023-02-18T03:32:58;6.20;99.90
16172;DHT22;8192;53.596;10.166;2023-02-18T03:35:26;6.20;99.90
16172;DHT22;8192;53.596;10.166;2023-02-18T03:37:58;6.20;99.90
16172;DHT22;8192;53.596;10.166;2023-02-18T03:40:27;6.20;99.90
16172;DHT22;8192;53.596;10.166;2023-02-18T03:42:56;6.20;99.90
16172;DHT22;8192;53.596;10.166;2023-02-18T03:45:23;6.20;99.90
16172;DHT22;8192;53.596;10.166;2023-02-18T03:47:50;6.20;99.90
16172;DHT22;8192;53.596;10.166;2023-02-18T03:50:18;6.20;99.90
16172;DHT22;8192;53.596;10.166;2023-02-18T03:52:45;6.20;99.90
16172;DHT22;8192;53.596;10.166;2023-02-18T03:55:29;6.20;99.90
16172;DHT22;8192;53.596;10.166;2023-02-18T03:57:59;6.30;99.90
16172;DHT22;8192;53.596;10.166;2023-02-18T04:00:26;6.40;99.90
16172;DHT22;8192;53.596;10.166;2023-02-18T04:02:53;6.50;99.90
16172;DHT22;8192;53.596;10.166;2023-02-18T04:05:20;6.50;99.90
16172;DHT22;8192;53.596;10.166;2023-02-18T04:07:47;6.40;99.90
16172;DHT22;8192;53.596;10.166;2023-02-18T04:10:14;6.50;99.90
16172;DHT22;8192;53.596;10.166;2023-02-18T04:12:43;6.40;99.90
16172;DHT22;8192;53.596;10.166;2023-02-18T04:15:10;6.40;99.90
16172;DHT22;8192;53.596;10.166;2023-02-18T04:17:38;6.30;99.90
16172;DHT22;8192;53.596;10.166;2023-02-18T04:20:06;6.40;99.90
16172;DHT22;8192;53.596;10.166;2023-02-18T04:22:33;6.40;99.90
16172;DHT22;8192;53.596;10.166;2023-02-18T04:25:00;6.30;99.90
16172;DHT22;8192;53.596;10.166;2023-02-18T04:27:28;6.20;99.90
16172;DHT22;8192;53.596;10.166;2023-02-18T04:29:57;6.20;99.90
16172;DHT22;8192;53.596;10.166;2023-02-18T04:32:24;6.10;99.90
16172;DHT22;8192;53.596;10.166;2023-02-18T04:34:51;6.10;99.90
16172;DHT22;8192;53.596;10.166;2023-02-18T04:37:18;6.10;99.90
16172;DHT22;8192;53.596;10.166;2023-02-18T04:39:45;6.10;99.90
16172;DHT22;8192;53.596;10.166;2023-02-18T04:42:12;6.00;99.90
16172;DHT22;8192;53.596;10.166;2023-02-18T04:44:39;5.90;99.90
16172;DHT22;8192;53.596;10.166;2023-02-18T04:47:08;5.90;99.90
16172;DHT22;8192;53.596;10.166;2023-02-18T04:49:36;5.80;99.90
16172;DHT22;8192;53.596;10.166;2023-02-18T04:52:03;5.80;99.90
16172;DHT22;8192;53.596;10.166;2023-02-18T04:54:30;5.80;99.90
16172;DHT22;8192;53.596;10.166;2023-02-18T04:56:57;5.80;99.90
16172;DHT22;8192;53.596;10.166;2023-02-18T05:00:19;5.70;99.90
16172;DHT22;8192;53.596;10.166;2023-02-18T05:04:32;5.70;99.90
16172;DHT22;8192;53.596;10.166;2023-02-18T05:08:47;5.80;99.90
16172;DHT22;8192;53.596;10.166;2023-02-18T05:11:14;5.80;99.90
16172;DHT22;8192;53.596;10.166;2023-02-18T05:13:41;5.80;99.90
16172;DHT22;8192;53.596;10.166;2023-02-18T05:16:08;5.80;99.90
16172;DHT22;8192;53.596;10.166;2023-02-18T05:18:35;5.80;99.90
16172;DHT22;8192;53.596;10.166;2023-02-18T05:21:03;5.80;99.90
16172;DHT22;8192;53.596;10.166;2023-02-18T05:23:30;5.80;99.90
16172;DHT22;8192;53.596;10.166;2023-02-18T05:25:59;5.80;99.90
16172;DHT22;8192;53.596;10.166;2023-02-18T05:28:26;5.80;99.90
16172;DHT22;8192;53.596;10.166;2023-02-18T05:30:53;5.80;99.90
16172;DHT22;8192;53.596;10.166;2023-02-18T05:33:20;5.80;99.90
16172;DHT22;8192;53.596;10.166;2023-02-18T05:35:48;5.80;99.90
16172;DHT22;8192;53.596;10.166;2023-02-18T05:38:15;5.70;99.90
16172;DHT22;8192;53.596;10.166;2023-02-18T05:40:42;5.70;99.90
16172;DHT22;8192;53.596;10.166;2023-02-18T05:43:11;5.70;99.90
16172;DHT22;8192;53.596;10.166;2023-02-18T05:45:38;5.70;99.90
16172;DHT22;8192;53.596;10.166;2023-02-18T05:48:05;5.60;99.90
16172;DHT22;8192;53.596;10.166;2023-02-18T05:50:32;5.60;99.90
16172;DHT22;8192;53.596;10.166;2023-02-18T05:52:59;5.50;99.90
16172;DHT22;8192;53.596;10.166;2023-02-18T05:55:26;5.50;99.90
16172;DHT22;8192;53.596;10.166;2023-02-18T05:57:53;5.50;99.90
16172;DHT22;8192;53.596;10.166;2023-02-18T06:00:22;5.50;99.90
16172;DHT22;8192;53.596;10.166;2023-02-18T06:02:50;5.50;99.90
16172;DHT22;8192;53.596;10.166;2023-02-18T06:05:17;5.50;99.90
16172;DHT22;8192;53.596;10.166;2023-02-18T06:07:44;5.50;99.90
16172;DHT22;8192;53.596;10.166;2023-02-18T06:10:11;5.40;99.90
16172;DHT22;8192;53.596;10.166;2023-02-18T06:12:39;5.40;99.90
16172;DHT22;8192;53.596;10.166;2023-02-18T06:15:06;5.40;99.90
16172;DHT22;8192;53.596;10.166;2023-02-18T06:17:35;5.40;99.90
16172;DHT22;8192;53.596;10.166;2023-02-18T06:20:03;5.40;99.90
16172;DHT22;8192;53.596;10.166;2023-02-18T06:22:30;5.40;99.90
16172;DHT22;8192;53.596;10.166;2023-02-18T06:24:57;5.40;99.90
16172;DHT22;8192;53.596;10.166;2023-02-18T06:27:24;5.40;99.90
16172;DHT22;8192;53.596;10.166;2023-02-18T06:29:51;5.30;99.90
16172;DHT22;8192;53.596;10.166;2023-02-18T06:32:18;5.20;99.90
16172;DHT22;8192;53.596;10.166;2023-02-18T06:34:47;5.20;99.90
16172;DHT22;8192;53.596;10.166;2023-02-18T06:37:14;5.10;99.90
16172;DHT22;8192;53.596;10.166;2023-02-18T06:39:41;5.10;99.90
16172;DHT22;8192;53.596;10.166;2023-02-18T06:42:08;5.00;99.90
16172;DHT22;8192;53.596;10.166;2023-02-18T06:44:36;4.50;99.90
16172;DHT22;8192;53.596;10.166;2023-02-18T06:47:04;5.00;99.90
16172;DHT22;8192;53.596;10.166;2023-02-18T06:49:32;5.20;99.90
16172;DHT22;8192;53.596;10.166;2023-02-18T06:52:05;5.20;99.90
16172;DHT22;8192;53.596;10.166;2023-02-18T06:54:32;5.10;99.90
16172;DHT22;8192;53.596;10.166;2023-02-18T06:56:59;5.10;99.90
16172;DHT22;8192;53.596;10.166;2023-02-18T06:59:27;5.10;99.90
16172;DHT22;8192;53.596;10.166;2023-02-18T07:01:55;5.20;99.90
16172;DHT22;8192;53.596;10.166;2023-02-18T07:04:22;5.20;99.90
16172;DHT22;8192;53.596;10.166;2023-02-18T07:06:49;5.20;99.90
16172;DHT22;8192;53.596;10.166;2023-02-18T07:09:25;5.20;99.90
16172;DHT22;8192;53.596;10.166;2023-02-18T07:12:03;5.20;99.90
16172;DHT22;8192;53.596;10.166;2023-02-18T07:14:32;5.20;99.90
16172;DHT22;8192;53.596;10.166;2023-02-18T07:16:59;5.20;99.90
16172;DHT22;8192;53.596;10.166;2023-02-18T07:19:26;5.30;99.90
16172;DHT22;8192;53.596;10.166;2023-02-18T07:21:55;5.30;99.90
16172;DHT22;8192;53.596;10.166;2023-02-18T07:24:31;5.30;99.90
16172;DHT22;8192;53.596;10.166;2023-02-18T07:27:34;5.30;99.90
16172;DHT22;8192;53.596;10.166;2023-02-18T07:30:03;5.30;99.90
16172;DHT22;8192;53.596;10.166;2023-02-18T07:35:22;5.40;99.90
16172;DHT22;8192;53.596;10.166;2023-02-18T07:37:50;5.40;99.90
16172;DHT22;8192;53.596;10.166;2023-02-18T07:40:28;5.40;99.90
16172;DHT22;8192;53.596;10.166;2023-02-18T07:42:58;5.50;99.90
16172;DHT22;8192;53.596;10.166;2023-02-18T07:45:53;5.50;99.90
16172;DHT22;8192;53.596;10.166;2023-02-18T07:48:20;5.50;99.90
16172;DHT22;8192;53.596;10.166;2023-02-18T07:54:09;5.50;99.90
16172;DHT22;8192;53.596;10.166;2023-02-18T07:56:38;5.60;99.90
16172;DHT22;8192;53.596;10.166;2023-02-18T07:59:41;5.60;99.90
16172;DHT22;8192;53.596;10.166;2023-02-18T08:02:12;5.60;99.90
16172;DHT22;8192;53.596;10.166;2023-02-18T08:04:41;5.70;99.90
16172;DHT22;8192;53.596;10.166;2023-02-18T08:07:12;5.70;99.90
16172;DHT22;8192;53.596;10.166;2023-02-18T08:09:39;5.70;99.90
16172;DHT22;8192;53.596;10.166;2023-02-18T08:12:08;5.70;99.90
16172;DHT22;8192;53.596;10.166;2023-02-18T08:14:35;5.70;99.90
16172;DHT22;8192;53.596;10.166;2023-02-18T08:17:02;5.80;99.90
16172;DHT22;8192;53.596;10.166;2023-02-18T08:19:30;5.80;99.90
16172;DHT22;8192;53.596;10.166;2023-02-18T08:22:00;5.90;99.90
16172;DHT22;8192;53.596;10.166;2023-02-18T08:27:28;5.80;99.90
16172;DHT22;8192;53.596;10.166;2023-02-18T08:29:56;5.90;99.90
16172;DHT22;8192;53.596;10.166;2023-02-18T08:32:26;5.90;99.90
16172;DHT22;8192;53.596;10.166;2023-02-18T08:34:54;5.80;99.90
16172;DHT22;8192;53.596;10.166;2023-02-18T08:37:21;5.90;99.90
16172;DHT22;8192;53.596;10.166;2023-02-18T08:39:49;5.90;99.90
16172;DHT22;8192;53.596;10.166;2023-02-18T08:42:17;5.90;99.90
16172;DHT22;8192;53.596;10.166;2023-02-18T08:44:45;5.90;99.90
16172;DHT22;8192;53.596;10.166;2023-02-18T08:47:14;5.90;99.90
16172;DHT22;8192;53.596;10.166;2023-02-18T08:50:04;5.90;99.90
16172;DHT22;8192;53.596;10.166;2023-02-18T08:52:32;6.00;99.90
16172;DHT22;8192;53.596;10.166;2023-02-18T08:55:14;6.00;99.90
16172;DHT22;8192;53.596;10.166;2023-02-18T08:57:45;6.00;99.90
16172;DHT22;8192;53.596;10.166;2023-02-18T09:00:17;6.10;99.90
16172;DHT22;8192;53.596;10.166;2023-02-18T09:02:44;6.10;99.90
16172;DHT22;8192;53.596;10.166;2023-02-18T09:05:13;6.10;99.90
16172;DHT22;8192;53.596;10.166;2023-02-18T09:07:40;6.10;99.90
16172;DHT22;8192;53.596;10.166;2023-02-18T09:10:09;6.10;99.90
16172;DHT22;8192;53.596;10.166;2023-02-18T09:12:36;6.10;99.90
16172;DHT22;8192;53.596;10.166;2023-02-18T09:15:04;6.10;99.90
16172;DHT22;8192;53.596;10.166;2023-02-18T09:17:33;6.10;99.90
16172;DHT22;8192;53.596;10.166;2023-02-18T09:20:00;5.90;99.90
16172;DHT22;8192;53.596;10.166;2023-02-18T09:22:27;5.80;99.90
16172;DHT22;8192;53.596;10.166;2023-02-18T09:24:57;5.90;99.90
16172;DHT22;8192;53.596;10.166;2023-02-18T09:27:24;5.90;99.90
16172;DHT22;8192;53.596;10.166;2023-02-18T09:29:51;5.90;99.90
16172;DHT22;8192;53.596;10.166;2023-02-18T09:32:18;5.90;99.90
16172;DHT22;8192;53.596;10.166;2023-02-18T09:34:47;6.00;99.90
16172;DHT22;8192;53.596;10.166;2023-02-18T09:37:14;6.00;99.90
16172;DHT22;8192;53.596;10.166;2023-02-18T09:39:41;6.00;99.90
16172;DHT22;8192;53.596;10.166;2023-02-18T09:42:13;6.10;99.90
16172;DHT22;8192;53.596;10.166;2023-02-18T09:44:44;6.10;99.90
16172;DHT22;8192;53.596;10.166;2023-02-18T09:47:17;6.20;99.90
16172;DHT22;8192;53.596;10.166;2023-02-18T09:49:50;6.20;99.90
16172;DHT22;8192;53.596;10.166;2023-02-18T09:55:40;6.20;99.90
16172;DHT22;8192;53.596;10.166;2023-02-18T09:58:13;6.30;99.90
16172;DHT22;8192;53.596;10.166;2023-02-18T10:00:43;6.30;99.90
16172;DHT22;8192;53.596;10.166;2023-02-18T10:03:16;6.20;99.90
16172;DHT22;8192;53.596;10.166;2023-02-18T10:05:55;6.10;99.90
16172;DHT22;8192;53.596;10.166;2023-02-18T10:08:26;6.00;99.90
16172;DHT22;8192;53.596;10.166;2023-02-18T10:10:56;6.10;99.90
16172;DHT22;8192;53.596;10.166;2023-02-18T10:13:30;6.00;99.90
16172;DHT22;8192;53.596;10.166;2023-02-18T10:15:59;6.10;99.90
16172;DHT22;8192;53.596;10.166;2023-02-18T10:18:41;6.00;99.90
16172;DHT22;8192;53.596;10.166;2023-02-18T10:21:26;6.00;99.90
16172;DHT22;8192;53.596;10.166;2023-02-18T10:23:59;6.10;99.90
16172;DHT22;8192;53.596;10.166;2023-02-18T10:26:29;6.40;99.90
16172;DHT22;8192;53.596;10.166;2023-02-18T10:28:57;6.10;99.90
16172;DHT22;8192;53.596;10.166;2023-02-18T10:31:29;6.20;99.90
16172;DHT22;8192;53.596;10.166;2023-02-18T10:34:12;6.30;99.90
16172;DHT22;8192;53.596;10.166;2023-02-18T10:36:44;6.30;99.90
16172;DHT22;8192;53.596;10.166;2023-02-18T10:39:36;6.30;99.90
16172;DHT22;8192;53.596;10.166;2023-02-18T10:42:16;6.40;99.90
16172;DHT22;8192;53.596;10.166;2023-02-18T10:44:55;6.40;99.90
16172;DHT22;8192;53.596;10.166;2023-02-18T10:47:35;6.50;99.90
16172;DHT22;8192;53.596;10.166;2023-02-18T10:50:10;6.50;99.90
16172;DHT22;8192;53.596;10.166;2023-02-18T10:52:41;6.60;99.90
16172;DHT22;8192;53.596;10.166;2023-02-18T10:55:10;6.60;99.90
16172;DHT22;8192;53.596;10.166;2023-02-18T10:57:46;6.60;99.90
16172;DHT22;8192;53.596;10.166;2023-02-18T11:00:20;6.60;99.90
16172;DHT22;8192;53.596;10.166;2023-02-18T11:03:03;6.50;99.90
16172;DHT22;8192;53.596;10.166;2023-02-18T11:05:35;6.40;99.90
16172;DHT22;8192;53.596;10.166;2023-02-18T11:08:08;6.50;99.90
16172;DHT22;8192;53.596;10.166;2023-02-18T11:10:44;6.50;99.90
16172;DHT22;8192;53.596;10.166;2023-02-18T11:13:22;6.50;99.90
16172;DHT22;8192;53.596;10.166;2023-02-18T11:15:59;6.50;99.90
16172;DHT22;8192;53.596;10.166;2023-02-18T11:18:36;6.50;99.90
16172;DHT22;8192;53.596;10.166;2023-02-18T11:21:05;6.50;99.90
16172;DHT22;8192;53.596;10.166;2023-02-18T11:23:45;6.40;99.90
16172;DHT22;8192;53.596;10.166;2023-02-18T11:26:14;6.60;99.90
16172;DHT22;8192;53.596;10.166;2023-02-18T11:28:45;6.70;99.90
16172;DHT22;8192;53.596;10.166;2023-02-18T11:31:19;6.70;99.90
16172;DHT22;8192;53.596;10.166;2023-02-18T11:33:50;6.80;99.90
16172;DHT22;8192;53.596;10.166;2023-02-18T11:36:22;6.70;99.90
16172;DHT22;8192;53.596;10.166;2023-02-18T11:38:53;6.80;99.90
16172;DHT22;8192;53.596;10.166;2023-02-18T11:41:29;6.80;99.90
16172;DHT22;8192;53.596;10.166;2023-02-18T11:43:58;6.80;99.90
16172;DHT22;8192;53.596;10.166;2023-02-18T11:46:32;6.80;99.90
16172;DHT22;8192;53.596;10.166;2023-02-18T11:49:21;6.80;99.90
16172;DHT22;8192;53.596;10.166;2023-02-18T11:51:50;6.90;99.90
16172;DHT22;8192;53.596;10.166;2023-02-18T11:54:26;7.00;99.90
16172;DHT22;8192;53.596;10.166;2023-02-18T12:00:22;7.30;99.90
16172;DHT22;8192;53.596;10.166;2023-02-18T12:02:51;7.40;99.90
16172;DHT22;8192;53.596;10.166;2023-02-18T12:05:21;7.40;99.90
16172;DHT22;8192;53.596;10.166;2023-02-18T12:07:51;7.40;99.90
16172;DHT22;8192;53.596;10.166;2023-02-18T12:13:36;7.40;99.90
16172;DHT22;8192;53.596;10.166;2023-02-18T12:16:12;7.50;99.90
16172;DHT22;8192;53.596;10.166;2023-02-18T12:22:12;7.90;99.90
16172;DHT22;8192;53.596;10.166;2023-02-18T12:25:03;8.10;99.90
16172;DHT22;8192;53.596;10.166;2023-02-18T12:27:43;8.20;99.90
16172;DHT22;8192;53.596;10.166;2023-02-18T12:30:33;8.30;99.90
16172;DHT22;8192;53.596;10.166;2023-02-18T12:34:29;8.60;99.90
16172;DHT22;8192;53.596;10.166;2023-02-18T12:37:10;8.80;99.90
16172;DHT22;8192;53.596;10.166;2023-02-18T12:39:57;8.70;99.90
16172;DHT22;8192;53.596;10.166;2023-02-18T12:52:44;8.80;99.90
16172;DHT22;8192;53.596;10.166;2023-02-18T12:55:38;8.80;99.90
16172;DHT22;8192;53.596;10.166;2023-02-18T12:58:18;8.80;99.90
16172;DHT22;8192;53.596;10.166;2023-02-18T13:01:24;8.80;99.90
16172;DHT22;8192;53.596;10.166;2023-02-18T13:04:18;8.80;99.90
16172;DHT22;8192;53.596;10.166;2023-02-18T13:07:09;8.80;99.90
16172;DHT22;8192;53.596;10.166;2023-02-18T13:10:01;8.80;99.90
16172;DHT22;8192;53.596;10.166;2023-02-18T13:12:37;8.70;99.90
16172;DHT22;8192;53.596;10.166;2023-02-18T13:15:15;8.70;99.90
16172;DHT22;8192;53.596;10.166;2023-02-18T13:17:43;8.60;99.90
16172;DHT22;8192;53.596;10.166;2023-02-18T13:20:16;8.60;99.90
16172;DHT22;8192;53.596;10.166;2023-02-18T13:22:45;8.60;99.90
16172;DHT22;8192;53.596;10.166;2023-02-18T13:25:17;8.60;99.90
16172;DHT22;8192;53.596;10.166;2023-02-18T13:28:02;8.50;99.90
16172;DHT22;8192;53.596;10.166;2023-02-18T13:30:39;8.60;99.90
16172;DHT22;8192;53.596;10.166;2023-02-18T13:33:20;8.50;99.90
16172;DHT22;8192;53.596;10.166;2023-02-18T13:35:56;8.50;99.90
16172;DHT22;8192;53.596;10.166;2023-02-18T13:38:48;8.50;99.90
16172;DHT22;8192;53.596;10.166;2023-02-18T13:42:33;8.50;99.90
16172;DHT22;8192;53.596;10.166;2023-02-18T13:47:48;8.40;99.90
16172;DHT22;8192;53.596;10.166;2023-02-18T13:50:24;8.40;99.90
16172;DHT22;8192;53.596;10.166;2023-02-18T13:55:50;8.20;99.90
16172;DHT22;8192;53.596;10.166;2023-02-18T13:58:22;8.20;99.90
16172;DHT22;8192;53.596;10.166;2023-02-18T14:00:54;8.10;99.90
16172;DHT22;8192;53.596;10.166;2023-02-18T14:03:49;7.90;99.90
16172;DHT22;8192;53.596;10.166;2023-02-18T14:06:19;7.40;99.90
16172;DHT22;8192;53.596;10.166;2023-02-18T14:08:47;7.20;99.90
16172;DHT22;8192;53.596;10.166;2023-02-18T14:11:44;7.00;99.90
16172;DHT22;8192;53.596;10.166;2023-02-18T14:14:36;6.80;99.90
16172;DHT22;8192;53.596;10.166;2023-02-18T14:17:32;6.70;99.90
16172;DHT22;8192;53.596;10.166;2023-02-18T14:23:42;6.60;99.90
16172;DHT22;8192;53.596;10.166;2023-02-18T14:26:23;6.40;99.90
16172;DHT22;8192;53.596;10.166;2023-02-18T14:28:54;6.20;99.90
16172;DHT22;8192;53.596;10.166;2023-02-18T14:31:48;6.20;99.90
16172;DHT22;8192;53.596;10.166;2023-02-18T14:34:38;6.20;99.90
16172;DHT22;8192;53.596;10.166;2023-02-18T14:40:12;6.20;99.90
16172;DHT22;8192;53.596;10.166;2023-02-18T14:42:46;6.10;99.90
16172;DHT22;8192;53.596;10.166;2023-02-18T14:45:29;6.20;99.90
16172;DHT22;8192;53.596;10.166;2023-02-18T14:48:19;6.20;99.90
16172;DHT22;8192;53.596;10.166;2023-02-18T14:50:57;6.20;99.90
16172;DHT22;8192;53.596;10.166;2023-02-18T15:00:55;5.50;99.90
16172;DHT22;8192;53.596;10.166;2023-02-18T15:03:22;5.40;99.90
16172;DHT22;8192;53.596;10.166;2023-02-18T15:05:50;5.30;99.90
16172;DHT22;8192;53.596;10.166;2023-02-18T15:08:18;5.30;99.90
16172;DHT22;8192;53.596;10.166;2023-02-18T15:10:48;5.30;99.90
16172;DHT22;8192;53.596;10.166;2023-02-18T15:13:19;5.30;99.90
16172;DHT22;8192;53.596;10.166;2023-02-18T15:15:50;5.30;99.90
16172;DHT22;8192;53.596;10.166;2023-02-18T15:18:26;5.20;99.90
16172;DHT22;8192;53.596;10.166;2023-02-18T15:20:54;5.10;99.90
16172;DHT22;8192;53.596;10.166;2023-02-18T15:23:21;5.10;99.90
16172;DHT22;8192;53.596;10.166;2023-02-18T15:25:50;5.10;99.90
16172;DHT22;8192;53.596;10.166;2023-02-18T15:28:23;5.30;99.90
16172;DHT22;8192;53.596;10.166;2023-02-18T15:30:50;5.40;99.90
16172;DHT22;8192;53.596;10.166;2023-02-18T15:33:19;5.40;99.90
16172;DHT22;8192;53.596;10.166;2023-02-18T15:35:48;5.40;99.90
16172;DHT22;8192;53.596;10.166;2023-02-18T15:38:17;5.30;99.90
16172;DHT22;8192;53.596;10.166;2023-02-18T15:40:47;5.20;99.90
16172;DHT22;8192;53.596;10.166;2023-02-18T15:43:18;5.10;99.90
16172;DHT22;8192;53.596;10.166;2023-02-18T15:45:51;5.00;99.90
16172;DHT22;8192;53.596;10.166;2023-02-18T15:48:32;5.00;99.90
16172;DHT22;8192;53.596;10.166;2023-02-18T15:51:11;5.00;99.90
16172;DHT22;8192;53.596;10.166;2023-02-18T15:53:48;4.90;99.90
16172;DHT22;8192;53.596;10.166;2023-02-18T15:56:28;4.90;99.90
16172;DHT22;8192;53.596;10.166;2023-02-18T15:59:17;4.90;99.90
16172;DHT22;8192;53.596;10.166;2023-02-18T16:01:49;4.90;99.90
16172;DHT22;8192;53.596;10.166;2023-02-18T16:04:18;4.90;99.90
16172;DHT22;8192;53.596;10.166;2023-02-18T16:06:49;4.90;99.90
16172;DHT22;8192;53.596;10.166;2023-02-18T16:09:21;4.90;99.90
16172;DHT22;8192;53.596;10.166;2023-02-18T16:11:50;4.90;99.90
16172;DHT22;8192;53.596;10.166;2023-02-18T16:14:28;4.80;99.90
16172;DHT22;8192;53.596;10.166;2023-02-18T16:17:12;4.90;99.90
16172;DHT22;8192;53.596;10.166;2023-02-18T16:19:47;4.80;99.90
16172;DHT22;8192;53.596;10.166;2023-02-18T16:22:44;4.80;99.90
16172;DHT22;8192;53.596;10.166;2023-02-18T16:25:18;4.80;99.90
16172;DHT22;8192;53.596;10.166;2023-02-18T16:27:50;4.80;99.90
16172;DHT22;8192;53.596;10.166;2023-02-18T16:30:19;4.80;99.90
16172;DHT22;8192;53.596;10.166;2023-02-18T16:32:46;4.80;99.90
16172;DHT22;8192;53.596;10.166;2023-02-18T16:35:13;4.80;99.90
16172;DHT22;8192;53.596;10.166;2023-02-18T16:37:43;4.80;99.90
16172;DHT22;8192;53.596;10.166;2023-02-18T16:40:31;4.80;99.90
16172;DHT22;8192;53.596;10.166;2023-02-18T16:43:08;4.80;99.90
16172;DHT22;8192;53.596;10.166;2023-02-18T17:44:58;4.20;99.90
16172;DHT22;8192;53.596;10.166;2023-02-18T17:47:35;4.20;99.90
16172;DHT22;8192;53.596;10.166;2023-02-18T18:04:52;4.30;99.90
16172;DHT22;8192;53.596;10.166;2023-02-18T18:07:21;4.30;99.90
16172;DHT22;8192;53.596;10.166;2023-02-18T18:15:24;4.20;99.90
16172;DHT22;8192;53.596;10.166;2023-02-18T18:20:57;4.20;99.90
16172;DHT22;8192;53.596;10.166;2023-02-18T18:23:25;4.30;99.90
16172;DHT22;8192;53.596;10.166;2023-02-18T18:54:54;3.60;99.90
16172;DHT22;8192;53.596;10.166;2023-02-18T19:16:48;3.40;99.90
16172;DHT22;8192;53.596;10.166;2023-02-18T19:46:16;3.40;99.90
16172;DHT22;8192;53.596;10.166;2023-02-18T19:52:06;3.40;99.90
16172;DHT22;8192;53.596;10.166;2023-02-18T20:14:27;3.20;99.90
16172;DHT22;8192;53.596;10.166;2023-02-18T20:20:47;3.10;99.90
16172;DHT22;8192;53.596;10.166;2023-02-18T20:23:28;3.00;99.90
16172;DHT22;8192;53.596;10.166;2023-02-18T20:26:05;3.10;99.90
16172;DHT22;8192;53.596;10.166;2023-02-18T20:32:23;3.00;99.90
16172;DHT22;8192;53.596;10.166;2023-02-18T20:42:28;2.90;99.90
16172;DHT22;8192;53.596;10.166;2023-02-18T20:51:04;2.90;99.90
16172;DHT22;8192;53.596;10.166;2023-02-18T20:53:38;2.80;99.90
16172;DHT22;8192;53.596;10.166;2023-02-18T21:01:59;2.80;99.90